Time;durP1;ratioP1;P1;durP2;ratioP2;P2;SDS_P1;SDS_P2;PMS_P1;PMS_P2;Temp;Humidity;BMP_temperature;BMP_pressure;BME280_temperature;BME280_humidity;BME280_pressure;Samples;Min_cycle;Max_cycle;Signal;HPM_P1;HPM_P2
2023/04/23 00:01:15;;;;;;;3.90;3.50;;;18.60;62.70;19.50;100028.00;;;;5033174;28;20182;-55
2023/04/23 00:03:42;;;;;;;3.27;3.00;;;18.60;62.70;19.50;100017.00;;;;5025872;28;20194;-56
2023/04/23 00:06:11;;;;;;;3.70;3.40;;;18.60;62.80;19.30;100017.00;;;;5033086;28;20218;-55
2023/04/23 00:08:40;;;;;;;3.60;3.30;;;18.60;62.80;19.50;100003.00;;;;5034106;28;20747;-55
2023/04/23 00:11:06;;;;;;;3.60;3.30;;;18.60;62.90;19.50;100019.00;;;;5034487;28;20583;-56
2023/04/23 00:13:32;;;;;;;3.70;3.40;;;18.60;63.00;19.40;100001.00;;;;5034331;28;20187;-56
2023/04/23 00:15:59;;;;;;;3.93;3.63;;;18.60;62.90;19.40;100012.00;;;;5036198;28;20190;-56
2023/04/23 00:18:24;;;;;;;3.43;3.20;;;18.60;62.90;19.40;100009.00;;;;5033415;28;20218;-56
2023/04/23 00:20:50;;;;;;;3.33;3.10;;;18.50;62.70;19.40;99990.00;;;;5041172;28;20175;-56
2023/04/23 00:23:16;;;;;;;3.33;3.13;;;18.60;62.90;19.40;100017.00;;;;5044057;28;20641;-56
2023/04/23 00:25:42;;;;;;;3.47;3.17;;;18.60;63.00;19.40;100012.00;;;;5032580;28;20268;-57
2023/04/23 00:28:07;;;;;;;3.30;3.10;;;18.50;62.90;19.40;100011.00;;;;5036458;28;20206;-56
2023/04/23 00:30:33;;;;;;;3.43;3.20;;;18.50;62.90;19.30;100016.00;;;;5035950;28;20294;-56
2023/04/23 00:32:59;;;;;;;3.90;3.60;;;18.50;62.90;19.40;99995.00;;;;5036865;28;20551;-56
2023/04/23 00:35:25;;;;;;;3.30;3.10;;;18.50;62.90;19.30;100018.00;;;;5035896;28;20179;-56
2023/04/23 00:37:52;;;;;;;3.67;3.30;;;18.50;62.80;19.30;100013.00;;;;5036994;28;20276;-56
2023/04/23 00:40:19;;;;;;;3.73;3.43;;;18.40;62.80;19.30;100008.00;;;;5042409;28;20229;-56
2023/04/23 00:42:45;;;;;;;3.57;3.30;;;18.50;62.90;19.30;99932.00;;;;5033040;28;20185;-57
2023/04/23 00:45:11;;;;;;;3.50;3.20;;;18.40;62.80;19.30;100009.00;;;;5033217;28;20195;-55
2023/04/23 00:47:37;;;;;;;3.33;3.10;;;18.40;62.80;19.30;100004.00;;;;5034306;28;20198;-57
2023/04/23 00:50:03;;;;;;;3.57;3.30;;;18.40;62.80;19.30;99986.00;;;;5032996;28;20194;-56
2023/04/23 00:52:28;;;;;;;3.70;3.40;;;18.40;62.80;19.30;99992.00;;;;5034092;28;20178;-56
2023/04/23 00:54:54;;;;;;;3.60;3.30;;;18.40;62.80;19.30;99974.00;;;;5034331;28;20187;-57
2023/04/23 00:57:21;;;;;;;3.43;3.20;;;18.40;62.80;19.30;99996.00;;;;5032774;28;20532;-55
2023/04/23 00:59:47;;;;;;;3.60;3.30;;;18.40;62.80;19.30;99998.00;;;;5033996;28;20191;-57
2023/04/23 01:02:13;;;;;;;3.30;3.10;;;18.40;62.80;19.30;99981.00;;;;5029090;28;20205;-56
2023/04/23 01:04:39;;;;;;;3.87;3.57;;;18.40;62.80;19.30;99989.00;;;;5021299;28;20259;-55
2023/04/23 01:07:05;;;;;;;3.60;3.30;;;18.40;62.90;19.20;99989.00;;;;5029789;28;20621;-56
2023/04/23 01:09:31;;;;;;;3.40;3.20;;;18.40;62.90;19.20;99992.00;;;;5029511;28;20206;-55
2023/04/23 01:11:57;;;;;;;3.47;3.20;;;18.40;62.90;19.20;99995.00;;;;5029339;28;20190;-55
2023/04/23 01:14:22;;;;;;;3.50;3.30;;;18.40;62.80;19.20;99994.00;;;;5030390;28;20182;-55
2023/04/23 01:16:48;;;;;;;3.80;3.50;;;18.40;62.90;19.00;99998.00;;;;5030797;28;20232;-55
2023/04/23 01:19:14;;;;;;;3.63;3.33;;;18.30;62.80;19.20;99993.00;;;;5030674;28;20429;-55
2023/04/23 01:21:40;;;;;;;3.60;3.30;;;18.30;62.80;19.20;100004.00;;;;5029272;28;20186;-56
2023/04/23 01:24:06;;;;;;;3.70;3.40;;;18.30;62.90;19.20;99987.00;;;;5030510;28;20183;-56
2023/04/23 01:26:33;;;;;;;3.47;3.17;;;18.30;62.90;19.10;99985.00;;;;5030704;28;20294;-55
2023/04/23 01:28:59;;;;;;;3.60;3.30;;;18.30;63.00;19.10;99991.00;;;;5029271;28;20195;-56
2023/04/23 01:31:25;;;;;;;3.70;3.40;;;18.30;63.00;19.10;99995.00;;;;5029127;28;20336;-56
2023/04/23 01:33:51;;;;;;;3.40;3.20;;;18.30;63.00;19.10;99992.00;;;;5028954;28;20689;-56
2023/04/23 01:36:17;;;;;;;3.33;3.13;;;18.20;62.90;19.10;99993.00;;;;5029477;28;20179;-55
2023/04/23 01:38:43;;;;;;;3.80;3.50;;;18.30;62.90;19.10;99983.00;;;;5029177;28;20288;-55
2023/04/23 01:41:09;;;;;;;3.53;3.30;;;18.20;62.90;19.10;99987.00;;;;5030175;28;20230;-55
2023/04/23 01:43:35;;;;;;;3.83;3.53;;;18.30;62.90;19.10;99994.00;;;;5028512;28;20290;-56
2023/04/23 01:46:00;;;;;;;3.90;3.60;;;18.30;62.90;19.10;99976.00;;;;5029211;28;20800;-56
2023/04/23 01:48:26;;;;;;;3.80;3.37;;;18.30;62.80;19.10;99971.00;;;;5028848;28;20287;-56
2023/04/23 01:50:52;;;;;;;3.77;3.47;;;18.30;62.90;19.10;99984.00;;;;5028811;28;20184;-56
2023/04/23 01:53:18;;;;;;;3.57;3.30;;;18.20;62.70;19.10;99989.00;;;;5028801;28;20175;-56
2023/04/23 01:55:46;;;;;;;3.93;3.57;;;18.20;62.70;19.10;99989.00;;;;5030197;28;20197;-56
2023/04/23 01:58:13;;;;;;;3.97;3.57;;;18.20;62.70;19.10;99977.00;;;;5028443;28;20195;-56
2023/04/23 02:00:38;;;;;;;3.73;3.43;;;18.20;62.70;19.00;99986.00;;;;5029951;28;20198;-55
2023/04/23 02:03:04;;;;;;;3.77;3.47;;;18.20;62.70;19.00;99986.00;;;;5030098;28;20187;-55
2023/04/23 02:05:30;;;;;;;3.80;3.50;;;18.20;62.80;19.00;99968.00;;;;5029536;28;20229;-55
2023/04/23 02:07:55;;;;;;;3.73;3.43;;;18.10;62.60;19.00;99974.00;;;;5028262;28;20198;-55
2023/04/23 02:10:21;;;;;;;3.70;3.40;;;18.20;62.70;19.00;99980.00;;;;5028200;28;20218;-55
2023/04/23 02:12:47;;;;;;;3.90;3.60;;;18.10;62.60;19.00;99977.00;;;;5029273;28;20194;-56
2023/04/23 02:15:14;;;;;;;3.70;3.40;;;18.10;62.60;19.00;99980.00;;;;5029567;28;20723;-57
2023/04/23 02:17:40;;;;;;;3.80;3.50;;;18.20;62.80;19.00;99964.00;;;;5029778;28;20210;-56
2023/04/23 02:20:09;;;;;;;3.67;3.37;;;18.10;62.70;19.00;99978.00;;;;5029795;28;20175;-57
2023/04/23 02:22:38;;;;;;;4.00;3.70;;;18.10;62.70;19.00;99980.00;;;;5029707;28;20186;-55
2023/04/23 02:25:05;;;;;;;3.70;3.40;;;18.10;62.70;19.00;99981.00;;;;5040125;28;20520;-55
2023/04/23 02:27:32;;;;;;;3.60;3.30;;;18.10;62.60;18.90;99986.00;;;;5033168;28;20802;-55
2023/04/23 02:29:58;;;;;;;3.70;3.40;;;18.10;62.60;18.90;99993.00;;;;5029684;28;20174;-56
2023/04/23 02:32:23;;;;;;;3.90;3.60;;;18.10;62.60;18.90;99976.00;;;;5031708;28;20229;-56
2023/04/23 02:34:49;;;;;;;3.63;3.33;;;18.10;62.60;18.90;99986.00;;;;5030524;28;20247;-55
2023/04/23 02:37:15;;;;;;;3.80;3.50;;;18.10;62.60;18.90;99983.00;;;;5033657;28;20744;-55
2023/04/23 02:39:41;;;;;;;3.87;3.57;;;18.00;62.50;18.90;99986.00;;;;5044059;28;20229;-55
2023/04/23 02:42:07;;;;;;;4.13;3.83;;;18.00;62.50;18.90;99936.00;;;;5030632;28;20657;-57
2023/04/23 02:44:32;;;;;;;3.73;3.43;;;18.00;62.60;18.90;99982.00;;;;5028696;28;20249;-56
2023/04/23 02:46:58;;;;;;;3.40;3.20;;;18.00;62.60;18.90;99979.00;;;;5029064;28;20183;-56
2023/04/23 02:49:24;;;;;;;3.93;3.63;;;18.00;62.50;18.90;99975.00;;;;5029340;28;20174;-56
2023/04/23 02:51:50;;;;;;;3.90;3.60;;;18.00;62.60;18.90;99981.00;;;;5028874;28;20177;-55
2023/04/23 02:54:16;;;;;;;4.10;3.70;;;18.00;62.50;18.80;99968.00;;;;5028657;28;20178;-57
2023/04/23 02:56:42;;;;;;;3.60;3.30;;;18.00;62.40;18.80;99976.00;;;;5028995;28;20183;-55
2023/04/23 02:59:07;;;;;;;3.63;3.33;;;18.00;62.50;18.80;99980.00;;;;5028848;28;20722;-55
2023/04/23 03:01:33;;;;;;;4.00;3.70;;;18.00;62.50;18.80;99975.00;;;;5027294;28;20171;-55
2023/04/23 03:03:59;;;;;;;3.80;3.50;;;18.00;62.40;18.80;99970.00;;;;5028938;28;20680;-55
2023/04/23 03:06:25;;;;;;;3.87;3.57;;;17.90;62.20;18.80;99972.00;;;;5028676;28;20209;-55
2023/04/23 03:08:51;;;;;;;4.33;3.97;;;17.90;62.30;18.80;99976.00;;;;5028867;28;20218;-56
2023/04/23 03:11:16;;;;;;;3.90;3.60;;;17.90;63.00;18.80;99946.00;;;;5028559;28;20174;-55
2023/04/23 03:13:42;;;;;;;3.90;3.60;;;17.90;62.20;18.80;99964.00;;;;5028477;28;20236;-55
2023/04/23 03:16:08;;;;;;;4.00;3.70;;;17.90;62.20;18.70;99968.00;;;;5029194;28;20178;-55
2023/04/23 03:18:34;;;;;;;3.87;3.57;;;17.90;62.20;18.70;99960.00;;;;5028560;28;21034;-55
2023/04/23 03:20:59;;;;;;;4.17;3.80;;;17.90;62.20;18.70;99950.00;;;;5028611;28;20178;-55
2023/04/23 03:23:25;;;;;;;3.83;3.53;;;17.90;62.20;18.70;99962.00;;;;5028337;28;20178;-57
2023/04/23 03:25:51;;;;;;;4.30;4.00;;;17.90;62.20;18.70;99968.00;;;;5027427;28;20198;-56
2023/04/23 03:28:17;;;;;;;4.30;3.90;;;17.90;62.20;18.70;99957.00;;;;5028229;28;20191;-56
2023/04/23 03:30:42;;;;;;;5.33;4.47;;;17.90;62.60;18.70;99945.00;;;;5028193;28;20186;-56
2023/04/23 03:33:08;;;;;;;4.40;4.00;;;17.90;62.80;18.70;99950.00;;;;5028404;28;20175;-56
2023/04/23 03:35:34;;;;;;;4.43;4.13;;;17.90;62.60;18.70;99952.00;;;;5030004;28;20755;-55
2023/04/23 03:38:00;;;;;;;4.47;4.10;;;17.90;62.50;18.70;99940.00;;;;5028364;28;20198;-56
2023/04/23 03:40:26;;;;;;;4.13;3.83;;;17.90;62.50;18.70;99956.00;;;;5028172;28;20207;-56
2023/04/23 03:42:52;;;;;;;5.43;4.77;;;17.90;62.50;18.70;99954.00;;;;5021352;28;20292;-56
2023/04/23 03:45:17;;;;;;;6.70;6.10;;;17.80;62.30;18.60;99949.00;;;;5012962;28;20205;-55
2023/04/23 03:47:43;;;;;;;8.93;6.83;;;17.80;62.30;18.60;99961.00;;;;5026222;28;20194;-55
2023/04/23 03:50:11;;;;;;;8.83;8.00;;;17.70;62.20;18.50;99945.00;;;;5026542;28;20197;-56
2023/04/23 03:52:37;;;;;;;9.93;9.13;;;17.70;62.10;18.40;99934.00;;;;5027542;28;20330;-56
2023/04/23 03:55:03;;;;;;;10.00;9.10;;;17.70;62.20;18.40;99945.00;;;;5027638;28;20691;-55
2023/04/23 03:57:29;;;;;;;10.00;9.20;;;17.60;62.00;18.40;99948.00;;;;5027513;28;20252;-55
2023/04/23 03:59:54;;;;;;;10.50;9.60;;;17.60;61.90;18.30;99921.00;;;;5027179;28;20546;-55
2023/04/23 04:02:21;;;;;;;11.30;10.40;;;17.60;61.90;18.30;99942.00;;;;5027716;28;20180;-54
2023/04/23 04:04:48;;;;;;;10.80;9.90;;;17.60;62.00;18.30;99941.00;;;;5024904;28;20175;-54
2023/04/23 04:07:14;;;;;;;11.40;10.50;;;17.60;61.90;18.20;99938.00;;;;5022107;28;20187;-54
2023/04/23 04:09:40;;;;;;;10.30;9.50;;;17.60;61.90;18.20;99941.00;;;;5026408;28;20194;-54
2023/04/23 04:12:06;;;;;;;9.97;9.17;;;17.50;61.80;18.20;99945.00;;;;5027922;28;20217;-54
2023/04/23 04:14:31;;;;;;;9.67;8.90;;;17.50;61.90;18.20;99932.00;;;;5009750;28;20549;-54
2023/04/23 04:16:57;;;;;;;9.00;8.30;;;17.50;61.80;18.30;99936.00;;;;5026927;28;20641;-54
2023/04/23 04:19:23;;;;;;;9.37;8.47;;;17.60;61.90;18.30;99944.00;;;;5026833;28;20177;-56
2023/04/23 04:21:50;;;;;;;9.10;8.30;;;17.60;62.00;18.30;99937.00;;;;5026651;28;20177;-54
2023/04/23 04:24:17;;;;;;;8.47;7.77;;;17.60;62.10;18.30;99938.00;;;;5036914;28;20186;-60
2023/04/23 04:26:44;;;;;;;8.30;7.60;;;17.60;62.00;18.30;99945.00;;;;5039556;28;20708;-55
2023/04/23 04:29:10;;;;;;;8.37;7.67;;;17.60;62.00;18.30;99934.00;;;;5031998;28;20239;-55
2023/04/23 04:31:36;;;;;;;9.07;7.00;;;17.60;62.00;18.30;99925.00;;;;5030985;28;20173;-55
2023/04/23 04:34:02;;;;;;;7.97;7.27;;;17.60;62.00;18.30;99932.00;;;;5028787;28;20209;-55
2023/04/23 04:36:28;;;;;;;9.33;7.27;;;17.60;62.00;18.40;99938.00;;;;5031334;28;20181;-56
2023/04/23 04:38:54;;;;;;;7.33;6.63;;;17.60;62.30;18.30;99934.00;;;;5032106;28;20205;-56
2023/04/23 04:41:21;;;;;;;7.20;6.60;;;17.60;62.40;18.30;99939.00;;;;5038627;28;20181;-54
2023/04/23 04:43:47;;;;;;;7.20;6.60;;;17.60;62.40;18.30;99942.00;;;;5029245;28;20174;-55
2023/04/23 04:46:14;;;;;;;6.57;6.07;;;17.60;62.40;18.30;99939.00;;;;5031765;28;20236;-54
2023/04/23 04:48:40;;;;;;;7.27;6.67;;;17.50;62.30;18.30;99934.00;;;;5031966;28;20339;-55
2023/04/23 04:51:06;;;;;;;7.07;6.30;;;17.50;62.30;18.30;99937.00;;;;5032501;28;20250;-54
2023/04/23 04:53:31;;;;;;;6.53;5.83;;;17.50;62.40;18.30;99944.00;;;;5032471;28;20650;-55
2023/04/23 04:55:57;;;;;;;6.20;5.60;;;17.50;62.30;18.30;99932.00;;;;5032566;28;20171;-55
2023/04/23 04:58:23;;;;;;;6.30;5.73;;;17.50;62.30;18.30;99933.00;;;;5032365;28;20281;-55
2023/04/23 05:00:50;;;;;;;6.00;5.50;;;17.50;62.20;18.30;99946.00;;;;5030904;28;20179;-55
2023/04/23 05:03:18;;;;;;;5.30;4.90;;;17.50;62.20;18.30;99943.00;;;;5031371;28;20180;-55
2023/04/23 05:05:44;;;;;;;5.60;5.10;;;17.50;62.30;18.30;99944.00;;;;5031966;28;20274;-55
2023/04/23 05:08:11;;;;;;;5.33;4.83;;;17.50;62.30;18.30;99947.00;;;;5030834;28;20813;-55
2023/04/23 05:10:37;;;;;;;5.80;4.97;;;17.50;62.30;18.30;99946.00;;;;5031101;28;20181;-55
2023/04/23 05:13:02;;;;;;;5.43;4.63;;;17.50;62.30;18.30;99936.00;;;;5030881;28;20165;-55
2023/04/23 05:15:28;;;;;;;4.93;4.53;;;17.50;62.30;18.30;99941.00;;;;5031729;28;20680;-55
2023/04/23 05:17:54;;;;;;;4.97;4.53;;;17.50;62.40;18.30;99952.00;;;;5030781;28;20627;-56
2023/04/23 05:20:20;;;;;;;4.77;4.37;;;17.40;62.30;18.20;99959.00;;;;5031803;28;20178;-55
2023/04/23 05:22:46;;;;;;;4.83;4.40;;;17.50;62.40;18.30;99958.00;;;;5031952;28;20176;-56
2023/04/23 05:25:12;;;;;;;5.13;4.63;;;17.40;62.30;18.30;99957.00;;;;5030658;28;20251;-55
2023/04/23 05:27:37;;;;;;;4.50;4.10;;;17.40;62.30;18.20;99951.00;;;;5029691;28;20216;-55
2023/04/23 05:30:05;;;;;;;4.90;4.40;;;17.40;62.30;18.20;99953.00;;;;5032017;28;20258;-55
2023/04/23 05:32:31;;;;;;;4.30;4.00;;;17.40;62.40;18.20;99945.00;;;;5031634;28;20672;-55
2023/04/23 05:34:58;;;;;;;4.70;4.30;;;17.40;62.40;18.20;99948.00;;;;5013898;28;20264;-55
2023/04/23 05:37:24;;;;;;;4.63;4.23;;;17.40;62.40;18.20;99949.00;;;;5031369;28;20592;-56
2023/04/23 05:39:50;;;;;;;4.40;4.00;;;17.40;62.40;18.20;99949.00;;;;5031259;28;20183;-55
2023/04/23 05:42:15;;;;;;;4.23;3.93;;;17.40;62.40;18.20;99942.00;;;;5031516;28;20523;-54
2023/04/23 05:44:41;;;;;;;4.30;4.00;;;17.40;62.40;18.20;99950.00;;;;5030981;28;20185;-55
2023/04/23 05:47:09;;;;;;;4.60;4.20;;;17.40;62.40;18.20;99957.00;;;;5029032;28;20674;-55
2023/04/23 05:49:35;;;;;;;4.20;3.80;;;17.40;62.40;18.20;99954.00;;;;5031326;28;20182;-55
2023/04/23 05:52:03;;;;;;;4.00;3.70;;;17.40;62.50;18.20;99952.00;;;;5031162;28;20690;-55
2023/04/23 05:54:29;;;;;;;4.10;3.80;;;17.30;62.40;18.20;99940.00;;;;5029065;28;20177;-54
2023/04/23 05:56:55;;;;;;;3.80;3.50;;;17.40;62.50;18.20;99945.00;;;;5030720;28;20191;-54
2023/04/23 05:59:21;;;;;;;4.00;3.70;;;17.40;62.50;18.20;99965.00;;;;5031222;28;20275;-56
2023/04/23 06:01:47;;;;;;;4.00;3.70;;;17.40;62.60;18.20;99959.00;;;;5030375;28;20654;-55
2023/04/23 06:04:14;;;;;;;4.00;3.70;;;17.30;62.50;18.20;99957.00;;;;5031444;28;20176;-56
2023/04/23 06:06:40;;;;;;;3.90;3.60;;;17.40;62.60;18.20;99956.00;;;;5030957;28;20285;-55
2023/04/23 06:09:06;;;;;;;3.77;3.43;;;17.30;62.50;18.20;99950.00;;;;5030872;28;20192;-56
2023/04/23 06:11:32;;;;;;;3.90;3.60;;;17.30;62.50;18.20;99966.00;;;;5031071;28;20177;-56
2023/04/23 06:13:58;;;;;;;3.90;3.60;;;17.30;62.60;18.20;99955.00;;;;5030164;28;20222;-56
2023/04/23 06:16:24;;;;;;;3.60;3.30;;;17.40;62.70;18.20;99966.00;;;;5030196;28;20177;-56
2023/04/23 06:18:50;;;;;;;3.90;3.60;;;17.40;62.80;18.20;99952.00;;;;5030394;28;20195;-56
2023/04/23 06:21:16;;;;;;;4.00;3.70;;;17.30;62.70;18.20;99941.00;;;;5029495;28;20176;-55
2023/04/23 06:23:41;;;;;;;3.90;3.60;;;17.30;62.80;18.10;99948.00;;;;5033268;28;20184;-56
2023/04/23 06:26:07;;;;;;;3.70;3.40;;;17.30;62.90;18.10;99943.00;;;;5038020;28;20208;-56
2023/04/23 06:28:33;;;;;;;4.20;3.50;;;17.30;62.90;18.10;99944.00;;;;5031516;28;20198;-56
2023/04/23 06:30:59;;;;;;;3.90;3.60;;;17.30;62.80;18.10;99934.00;;;;5031835;28;20171;-55
2023/04/23 06:33:24;;;;;;;3.80;3.50;;;17.30;62.80;18.10;99944.00;;;;5032042;28;20523;-56
2023/04/23 06:35:50;;;;;;;3.53;3.33;;;17.40;62.80;18.10;99942.00;;;;5031701;28;20204;-56
2023/04/23 06:38:17;;;;;;;4.40;4.00;;;17.30;62.70;18.10;99931.00;;;;5038238;28;20645;-54
2023/04/23 06:40:43;;;;;;;3.70;3.40;;;17.30;62.70;18.10;99937.00;;;;5043262;28;20195;-56
2023/04/23 06:43:09;;;;;;;3.43;3.13;;;17.30;62.70;18.10;99936.00;;;;5031037;28;20196;-55
2023/04/23 06:45:35;;;;;;;3.70;3.40;;;17.30;62.70;18.10;99943.00;;;;5021847;28;20572;-53
2023/04/23 06:48:00;;;;;;;3.80;3.50;;;17.30;62.70;18.10;99940.00;;;;5030567;28;20212;-54
2023/04/23 06:50:26;;;;;;;3.70;3.40;;;17.30;62.70;18.10;99947.00;;;;5030434;28;20241;-55
2023/04/23 06:52:52;;;;;;;3.90;3.60;;;17.30;62.80;18.10;99948.00;;;;5020895;28;20185;-56
2023/04/23 06:55:18;;;;;;;3.90;3.60;;;17.30;62.80;18.10;99940.00;;;;5030202;28;20207;-56
2023/04/23 06:57:44;;;;;;;3.60;3.30;;;17.30;62.80;18.10;99942.00;;;;5029783;28;20197;-56
2023/04/23 07:00:10;;;;;;;3.57;3.37;;;17.20;62.70;18.10;99944.00;;;;5029617;28;20552;-54
2023/04/23 07:02:36;;;;;;;3.70;3.40;;;17.30;62.90;18.10;99945.00;;;;5010459;28;20679;-54
2023/04/23 07:05:02;;;;;;;3.63;3.33;;;17.30;62.90;18.00;99940.00;;;;5030145;28;20198;-55
2023/04/23 07:07:28;;;;;;;3.27;3.07;;;17.20;62.80;18.00;99950.00;;;;5028255;28;20215;-55
2023/04/23 07:09:54;;;;;;;3.50;3.20;;;17.20;62.80;18.00;99929.00;;;;5030257;28;20234;-56
2023/04/23 07:12:19;;;;;;;3.70;3.40;;;17.20;62.80;18.00;99925.00;;;;5030102;28;20177;-54
2023/04/23 07:14:45;;;;;;;3.57;3.30;;;17.20;62.80;18.00;99916.00;;;;5026376;28;20173;-54
2023/04/23 07:17:11;;;;;;;3.67;3.40;;;17.20;62.70;18.00;99913.00;;;;5023782;28;20683;-55
2023/04/23 07:19:37;;;;;;;3.50;3.30;;;17.20;62.80;18.00;99915.00;;;;5028454;28;20173;-54
2023/04/23 07:22:03;;;;;;;3.40;3.10;;;17.20;62.90;18.00;99912.00;;;;5030018;28;20251;-55
2023/04/23 07:24:28;;;;;;;3.37;3.17;;;17.20;62.80;18.00;99916.00;;;;5029463;28;20611;-54
2023/04/23 07:26:54;;;;;;;3.73;3.43;;;17.20;62.90;18.00;99916.00;;;;5021282;28;20243;-57
2023/04/23 07:29:20;;;;;;;3.43;3.23;;;17.20;62.90;18.00;99911.00;;;;5029719;28;20181;-55
2023/04/23 07:31:46;;;;;;;3.60;3.30;;;17.20;63.00;18.00;99902.00;;;;5029695;28;20178;-55
2023/04/23 07:34:11;;;;;;;3.53;3.30;;;17.20;63.00;18.00;99915.00;;;;5029393;28;20171;-55
2023/04/23 07:36:37;;;;;;;3.20;3.00;;;17.20;63.00;18.00;99899.00;;;;5029198;28;20234;-55
2023/04/23 07:39:04;;;;;;;3.60;3.30;;;17.20;63.00;18.00;99892.00;;;;5029538;28;20194;-55
2023/04/23 07:41:31;;;;;;;3.40;3.20;;;17.20;63.20;18.00;99904.00;;;;5028109;28;20191;-56
2023/04/23 07:43:56;;;;;;;3.20;3.00;;;17.20;63.00;18.00;99898.00;;;;5027885;28;20226;-55
2023/04/23 07:46:22;;;;;;;3.57;3.27;;;17.20;63.10;18.00;99901.00;;;;5029281;28;20187;-55
2023/04/23 07:48:48;;;;;;;3.40;3.10;;;17.20;63.10;18.00;99898.00;;;;5029115;28;20584;-55
2023/04/23 07:51:13;;;;;;;3.53;3.23;;;17.20;63.10;18.00;99906.00;;;;5029272;28;20179;-55
2023/04/23 07:53:40;;;;;;;3.10;2.90;;;17.20;63.10;18.00;99905.00;;;;5028702;28;20184;-56
2023/04/23 07:56:05;;;;;;;3.20;3.00;;;17.20;63.10;18.00;99897.00;;;;5029130;28;20203;-55
2023/04/23 07:58:34;;;;;;;3.20;3.00;;;17.20;63.10;18.00;99896.00;;;;5028985;28;20201;-55
2023/04/23 08:01:01;;;;;;;3.30;3.10;;;17.20;63.10;18.00;99891.00;;;;5028099;28;20233;-56
2023/04/23 08:03:27;;;;;;;3.50;3.20;;;17.20;63.30;18.00;99887.00;;;;5027799;28;20651;-54
2023/04/23 08:05:53;;;;;;;3.70;3.40;;;17.20;63.30;18.00;99890.00;;;;5027359;28;20211;-57
2023/04/23 08:08:18;;;;;;;3.70;3.40;;;17.20;63.30;18.00;99881.00;;;;5028364;28;20192;-55
2023/04/23 08:10:45;;;;;;;3.40;3.10;;;17.20;63.30;18.00;99876.00;;;;5029779;28;20215;-54
2023/04/23 08:13:10;;;;;;;3.50;3.20;;;17.20;63.30;18.00;99885.00;;;;5027451;28;20176;-55
2023/04/23 08:15:36;;;;;;;3.30;3.00;;;17.20;63.30;18.00;99890.00;;;;5031853;28;20180;-55
2023/04/23 08:18:03;;;;;;;3.13;2.93;;;17.10;63.30;18.00;99885.00;;;;5033687;28;20209;-54
2023/04/23 08:20:29;;;;;;;3.20;3.00;;;17.20;63.40;18.00;99892.00;;;;5032469;28;20269;-57
2023/04/23 08:22:55;;;;;;;3.10;2.90;;;17.20;63.50;18.00;99891.00;;;;5033085;28;20268;-57
2023/04/23 08:25:21;;;;;;;3.50;3.20;;;17.20;63.50;18.00;99884.00;;;;5047020;28;20207;-56
2023/04/23 08:27:46;;;;;;;3.30;3.00;;;17.20;63.60;18.00;99889.00;;;;5034374;28;20607;-57
2023/04/23 08:30:12;;;;;;;3.23;3.03;;;17.20;63.70;18.00;99895.00;;;;5033847;28;20172;-57
2023/04/23 08:32:39;;;;;;;3.13;2.93;;;17.20;63.80;18.00;99872.00;;;;5039186;28;20186;-56
2023/04/23 08:35:06;;;;;;;3.27;3.07;;;17.20;63.70;18.00;99884.00;;;;5040891;28;20184;-56
2023/04/23 08:37:32;;;;;;;3.03;2.83;;;17.20;63.70;18.00;99892.00;;;;5032883;28;20203;-57
2023/04/23 08:40:00;;;;;;;3.33;3.03;;;17.20;63.70;18.00;99884.00;;;;5039645;28;20549;-56
2023/04/23 08:42:42;;;;;;;3.20;3.00;;;17.20;63.70;18.10;99890.00;;;;5038559;28;20196;-56
2023/04/23 08:45:08;;;;;;;3.10;2.90;;;17.20;63.70;18.10;99884.00;;;;5027288;28;20670;-55
2023/04/23 08:47:35;;;;;;;3.10;2.90;;;17.20;63.80;18.10;99882.00;;;;5028906;28;20208;-56
2023/04/23 08:50:00;;;;;;;3.10;2.90;;;17.20;63.70;18.10;99888.00;;;;5031879;28;20643;-55
2023/04/23 08:52:28;;;;;;;3.13;2.93;;;17.20;63.70;18.00;99878.00;;;;5031748;28;20212;-55
2023/04/23 08:54:58;;;;;;;3.00;2.80;;;17.20;63.80;18.10;99885.00;;;;5031428;28;20176;-55
2023/04/23 08:57:24;;;;;;;3.17;2.97;;;17.20;63.80;18.10;99856.00;;;;5031864;28;20793;-55
2023/04/23 08:59:50;;;;;;;3.10;2.90;;;17.20;63.90;18.10;99881.00;;;;5031488;28;20216;-54
2023/04/23 09:02:16;;;;;;;3.10;2.90;;;17.20;63.90;18.10;99875.00;;;;5030526;28;20179;-55
2023/04/23 09:04:41;;;;;;;3.50;2.70;;;17.20;63.90;18.10;99875.00;;;;5028533;28;20262;-56
2023/04/23 09:07:10;;;;;;;3.10;2.90;;;17.20;65.00;18.10;99871.00;;;;5030338;28;20290;-56
2023/04/23 09:09:37;;;;;;;3.20;2.90;;;17.20;64.20;18.10;99868.00;;;;5029440;28;20188;-55
2023/04/23 09:12:03;;;;;;;3.10;2.90;;;17.20;64.20;18.10;99860.00;;;;5023863;28;20249;-55
2023/04/23 09:14:29;;;;;;;3.40;3.10;;;17.20;64.30;18.10;99864.00;;;;5029076;28;20215;-55
2023/04/23 09:16:55;;;;;;;3.20;2.90;;;17.20;64.60;18.10;99853.00;;;;5030966;28;20180;-55
2023/04/23 09:19:20;;;;;;;3.10;2.90;;;17.20;64.60;18.20;99858.00;;;;5031280;28;20235;-55
2023/04/23 09:21:46;;;;;;;3.90;2.70;;;17.20;64.60;18.20;99850.00;;;;5030038;28;20192;-55
2023/04/23 09:24:13;;;;;;;3.13;2.83;;;17.20;64.60;18.20;99855.00;;;;5031046;28;20266;-56
2023/04/23 09:26:47;;;;;;;3.20;2.90;;;17.20;64.60;18.20;99852.00;;;;5031487;28;20207;-55
2023/04/23 09:29:16;;;;;;;2.90;2.70;;;17.20;64.70;18.20;99853.00;;;;5025253;28;20193;-56
2023/04/23 09:31:42;;;;;;;3.20;3.00;;;17.30;64.70;18.20;99847.00;;;;5032110;28;20179;-55
2023/04/23 09:34:08;;;;;;;3.13;2.93;;;17.30;64.70;18.20;99854.00;;;;5030696;28;20251;-56
2023/04/23 09:36:36;;;;;;;2.90;2.70;;;17.30;64.70;18.20;99849.00;;;;5030347;28;20282;-55
2023/04/23 09:39:01;;;;;;;3.10;2.87;;;17.30;64.70;18.20;99847.00;;;;5031650;28;20714;-57
2023/04/23 09:41:27;;;;;;;3.13;2.83;;;17.30;64.80;18.20;99838.00;;;;5031338;28;20262;-54
2023/04/23 09:43:56;;;;;;;3.00;2.80;;;17.30;64.80;18.20;99832.00;;;;5031469;28;20649;-57
2023/04/23 09:46:44;;;;;;;3.07;2.77;;;17.30;64.80;18.20;99832.00;;;;5030166;28;20548;-55
2023/04/23 09:49:11;;;;;;;3.67;2.87;;;17.30;64.80;18.20;99831.00;;;;4975447;28;20951;-56
2023/04/23 09:51:41;;;;;;;2.93;2.73;;;17.30;64.90;18.20;99828.00;;;;5030385;28;20190;-55
2023/04/23 09:54:14;;;;;;;3.07;2.77;;;17.30;64.80;18.20;99837.00;;;;5030859;28;20184;-55
2023/04/23 09:56:43;;;;;;;2.87;2.67;;;17.30;64.90;18.20;99804.00;;;;5029241;28;20678;-55
2023/04/23 09:59:39;;;;;;;3.57;2.80;;;17.30;64.90;18.30;99818.00;;;;5032781;28;20192;-57
2023/04/23 10:02:06;;;;;;;3.10;2.70;;;17.30;65.10;18.30;99819.00;;;;5034259;28;20191;-58
2023/04/23 10:04:32;;;;;;;3.13;2.87;;;17.30;65.30;18.30;99806.00;;;;5014414;28;20175;-57
2023/04/23 10:07:01;;;;;;;4.10;2.70;;;17.30;65.40;18.30;99804.00;;;;5035233;28;20195;-57
2023/04/23 10:09:28;;;;;;;3.07;2.83;;;17.30;65.40;18.30;99804.00;;;;5012371;28;20718;-56
2023/04/23 10:11:55;;;;;;;2.93;2.60;;;17.40;65.70;18.30;99758.00;;;;5022671;28;20173;-55
2023/04/23 10:14:21;;;;;;;3.07;2.70;;;17.40;65.80;18.30;99791.00;;;;5029489;28;20176;-56
2023/04/23 10:16:49;;;;;;;3.03;2.53;;;17.30;65.90;18.30;99780.00;;;;5029383;28;20185;-56
2023/04/23 10:19:17;;;;;;;3.37;2.70;;;17.40;66.00;18.30;99781.00;;;;5027218;28;20187;-55
2023/04/23 10:21:43;;;;;;;2.70;2.40;;;17.40;66.00;18.30;99792.00;;;;5029547;28;20188;-54
2023/04/23 10:24:12;;;;;;;2.77;2.53;;;17.40;66.10;18.30;99795.00;;;;5028822;28;20669;-57
2023/04/23 10:26:38;;;;;;;2.97;2.50;;;17.40;66.10;18.30;99792.00;;;;5036677;28;20814;-53
2023/04/23 10:29:05;;;;;;;3.83;2.90;;;17.40;66.30;18.40;99812.00;;;;5044148;28;20670;-54
2023/04/23 10:31:31;;;;;;;4.57;2.93;;;17.40;66.40;18.40;99790.00;;;;5029271;28;20175;-53
2023/04/23 10:33:56;;;;;;;5.07;2.57;;;17.40;66.50;18.40;99797.00;;;;5029182;28;20178;-53
2023/04/23 10:36:24;;;;;;;3.97;2.67;;;17.50;66.70;18.40;99776.00;;;;5013428;28;20178;-55
2023/04/23 10:38:50;;;;;;;4.20;2.77;;;17.50;66.40;18.40;99795.00;;;;5031519;28;20255;-56
2023/04/23 10:41:16;;;;;;;2.70;2.50;;;17.50;66.50;18.40;99789.00;;;;5040098;28;20184;-54
2023/04/23 10:43:41;;;;;;;3.57;2.40;;;17.50;66.70;18.40;99788.00;;;;5029496;28;20801;-55
2023/04/23 10:46:28;;;;;;;4.53;2.70;;;17.50;66.70;18.50;99730.00;;;;5029236;28;20237;-55
2023/04/23 10:49:14;;;;;;;2.60;2.40;;;17.50;66.80;18.50;99785.00;;;;5029748;28;20248;-54
2023/04/23 10:51:41;;;;;;;3.10;2.50;;;17.50;67.00;18.50;99776.00;;;;5029221;28;20302;-54